Latest Coastal Weather Observations for Mardie

IDW60701

Issued at 3:23 pm WST Wednesday 18 October 2017 (issued every 10 minutes, with the page automatically refreshed every 10 minutes)

About coastal observations | Map of coastal stations | Coastal observations for WA | Marine services | Other Formats
Station Details ID: 005008 Name: MARDIE Lat: -21.19 Lon: 115.98 Height: 11.0 m
Data from the previous 72 hours. | See also: Recent months at Mardie
Date/Time
WST
Temp
°C
Wind Pressure Rain since
9am
mm
Weather Cloud Vis
km
Sea
Height
m
Swell
Dir  Spd
kts
Gust
kts
hPa Trend Height
m
Period
s
Dir
18/03:00pm 36.5 SW 8 14 1008.2 - 0.0 - - - - - - -
18/02:30pm 36.2 SW 7 12 1008.6 - 0.0 - - - - - - -
18/02:00pm 35.3 S 7 12 1009.1 - 0.0 - - - - - - -
18/01:30pm 35.0 SSW 9 16 1009.5 - 0.0 - - - - - - -
18/01:00pm 34.3 SSW 8 15 1010.2 - 0.0 - - - - - - -
18/12:30pm 33.7 SW 9 18 1010.8 - 0.0 - - - - - - -
18/12:00pm 32.7 S 9 15 1011.3 - 0.0 - - - - - - -
18/11:30am 32.1 S 9 15 1011.7 - 0.0 - - - - - - -
18/11:00am 31.0 S 9 16 1012.2 - 0.0 - - - - - - -
18/10:30am 30.1 S 12 17 1012.5 - 0.0 - - - - - - -
18/10:00am 28.6 S 12 18 1012.9 - 0.0 - - - - - - -
18/09:30am 27.3 S 13 18 1013.3 - 0.0 - - - - - - -
18/09:00am 25.8 S 14 19 1013.4 - 0.0 - - - - - - -
18/08:30am 24.1 S 15 20 1013.4 - 0.0 - - - - - - -
18/08:00am 22.8 SSW 16 20 1013.4 - 0.0 - - - - - - -
18/07:30am 21.6 SSW 17 20 1013.2 - 0.0 - - - - - - -
18/07:00am 20.0 SSW 14 20 1012.9 - 0.0 - - - - - - -
18/06:30am 18.7 SSW 12 16 1012.6 - 0.0 - - - - - - -
18/06:00am 17.6 SSW 10 13 1012.3 - 0.0 - - - - - - -
18/05:30am 17.3 SW 10 13 1011.9 - 0.0 - - - - - - -
18/05:00am 17.5 SW 9 11 1011.7 - 0.0 - - - - - - -
18/04:30am 17.6 SW 8 11 1011.4 - 0.0 - - - - - - -
18/04:00am 18.0 SW 9 12 1011.0 - 0.0 - - - - - - -
18/03:30am 18.2 SW 8 11 1010.7 - 0.0 - - - - - - -
18/03:00am 18.7 SW 9 11 1010.5 - 0.0 - - - - - - -
18/02:30am 19.1 SW 9 12 1010.6 - 0.0 - - - - - - -
18/02:00am 19.3 SW 9 13 1010.8 - 0.0 - - - - - - -
18/01:30am 19.4 SW 8 12 1010.9 - 0.0 - - - - - - -
18/01:00am 19.5 SW 7 10 1011.1 - 0.0 - - - - - - -
18/12:30am 20.1 SW 8 12 1011.3 - 0.0 - - - - - - -
18/12:00am 20.7 SW 10 15 1011.5 - 0.0 - - - - - - -
 
Date/Time
WST
Temp
°C
Wind Pressure Rain since
9am
mm
Weather Cloud Vis
km
Sea
Height
m
Swell
Dir  Spd
kts
Gust
kts
hPa Trend Height
m
Period
s
Dir
17/11:30pm 20.9 SW 8 11 1011.7 - 0.0 - - - - - - -
17/11:00pm 21.4 SW 9 12 1011.6 - 0.0 - - - - - - -
17/10:30pm 21.8 WSW 10 14 1011.7 - 0.0 - - - - - - -
17/10:00pm 22.2 WSW 13 17 1011.6 - 0.0 - - - - - - -
17/09:30pm 22.6 WSW 13 19 1011.6 - 0.0 - - - - - - -
17/09:00pm 23.1 WSW 13 16 1011.4 - 0.0 - - - - - - -
17/08:30pm 23.4 WSW 12 16 1011.3 - 0.0 - - - - - - -
17/08:00pm 23.2 W 12 17 1011.1 - 0.0 - - - - - - -
17/07:30pm 23.3 W 14 19 1010.8 - 0.0 - - - - - - -
17/07:00pm 23.2 W 14 21 1010.3 - 0.0 - - - - - - -
17/06:30pm 23.4 W 17 24 1010.0 - 0.0 - - - - - - -
17/06:00pm 23.9 W 18 24 1009.6 - 0.0 - - - - - - -
17/05:30pm 24.5 W 19 27 1009.3 - 0.0 - - - - - - -
17/05:00pm 25.7 W 17 23 1009.0 - 0.0 - - - - - - -
17/04:30pm 26.4 W 19 26 1008.8 - 0.0 - - - - - - -
17/04:00pm 26.6 W 19 26 1008.8 - 0.0 - - - - - - -
17/03:30pm 26.4 W 19 26 1008.7 - 0.0 - - - - - - -
17/03:00pm 27.4 W 20 27 1008.6 - 0.0 - - - - - - -
17/02:30pm 28.0 W 20 26 1008.6 - 0.0 - - - - - - -
17/02:00pm 28.1 W 19 27 1008.7 - 0.0 - - - - - - -
17/01:30pm 29.1 WNW 18 24 1009.0 - 0.0 - - - - - - -
17/01:00pm 30.4 SW 10 16 1009.3 - 0.0 - - - - - - -
17/12:30pm 29.8 SSW 11 17 1009.9 - 0.0 - - - - - - -
17/12:00pm 29.2 SW 11 17 1010.3 - 0.0 - - - - - - -
17/11:30am 28.1 SSW 14 20 1010.5 - 0.0 - - - - - - -
17/11:00am 27.2 SW 13 18 1011.1 - 0.0 - - - - - - -
17/10:30am 26.8 SSW 13 19 1011.6 - 0.0 - - - - - - -
17/10:00am 25.6 SSW 14 20 1012.0 - 0.0 - - - - - - -
17/09:30am 25.1 SSW 14 19 1012.2 - 0.0 - - - - - - -
17/09:00am 23.7 SSW 14 20 1012.1 - 0.0 - - - - - - -
17/08:30am 22.3 SSW 16 23 1012.5 - 0.0 - - - - - - -
17/08:00am 21.1 SSW 17 22 1012.2 - 0.0 - - - - - - -
17/07:30am 19.9 SSW 17 23 1011.8 - 0.0 - - - - - - -
17/07:00am 19.1 SW 15 20 1011.7 - 0.0 - - - - - - -
17/06:30am 18.3 SW 12 16 1011.4 - 0.0 - - - - - - -
17/06:00am 17.7 SW 10 13 1011.2 - 0.0 - - - - - - -
17/05:30am 17.9 SW 11 15 1010.7 - 0.0 - - - - - - -
17/05:00am 18.1 SW 11 15 1010.4 - 0.0 - - - - - - -
17/04:30am 18.4 SW 10 14 1010.1 - 0.0 - - - - - - -
17/04:00am 19.0 SW 11 14 1010.0 - 0.0 - - - - - - -
17/03:30am 19.5 SW 12 17 1009.7 - 0.0 - - - - - - -
17/03:00am 19.8 SW 11 15 1009.6 - 0.0 - - - - - - -
17/02:30am 20.1 SW 11 15 1009.4 - 0.0 - - - - - - -
17/02:00am 20.4 SW 11 16 1009.7 - 0.0 - - - - - - -
17/01:30am 20.6 SW 11 18 1009.8 - 0.0 - - - - - - -
17/01:00am 21.2 SW 13 18 1010.0 - 0.0 - - - - - - -
17/12:30am 21.8 SW 11 18 1010.2 - 0.0 - - - - - - -
17/12:00am 22.1 SW 11 16 1010.2 - 0.0 - - - - - - -
 
Date/Time
WST
Temp
°C
Wind Pressure Rain since
9am
mm
Weather Cloud Vis
km
Sea
Height
m
Swell
Dir  Spd
kts
Gust
kts
hPa Trend Height
m
Period
s
Dir
16/11:30pm 22.8 SW 13 20 1010.3 - 0.0 - - - - - - -
16/11:00pm 23.2 SW 11 17 1010.5 - 0.0 - - - - - - -
16/10:30pm 23.6 WSW 11 14 1010.5 - 0.0 - - - - - - -
16/10:00pm 23.9 WSW 13 17 1010.5 - 0.0 - - - - - - -
16/09:30pm 24.3 WSW 15 21 1010.5 - 0.0 - - - - - - -
16/09:00pm 24.4 WSW 13 18 1010.4 - 0.0 - - - - - - -
16/08:30pm 24.3 WSW 14 20 1010.1 - 0.0 - - - - - - -
16/08:00pm 24.3 W 16 23 1010.0 - 0.0 - - - - - - -
16/07:30pm 24.4 W 14 19 1009.9 - 0.0 - - - - - - -
16/07:00pm 24.4 W 14 23 1009.6 - 0.0 - - - - - - -
16/06:30pm 24.4 W 13 19 1009.2 - 0.0 - - - - - - -
16/06:00pm 25.0 W 16 23 1008.9 - 0.0 - - - - - - -
16/05:30pm 25.8 W 15 23 1008.8 - 0.0 - - - - - - -
16/05:00pm 26.1 W 19 24 1008.5 - 0.0 - - - - - - -
16/04:30pm 26.6 W 18 22 1008.3 - 0.0 - - - - - - -
16/04:00pm 27.2 W 17 23 1008.3 - 0.0 - - - - - - -
16/03:30pm 27.4 W 18 27 1008.4 - 0.0 - - - - - - -
16/03:00pm 27.7 W 19 26 1008.6 - 0.0 - - - - - - -
16/02:30pm 28.3 W 17 24 1008.7 - 0.0 - - - - - - -
16/02:00pm 27.6 W 18 26 1009.0 - 0.0 - - - - - - -
16/01:30pm 28.3 W 17 22 1009.2 - 0.0 - - - - - - -
16/01:00pm 27.5 W 17 24 1009.7 - 0.0 - - - - - - -
16/12:30pm 28.8 W 18 23 1009.9 - 0.0 - - - - - - -
16/12:00pm 29.0 W 15 21 1010.3 - 0.0 - - - - - - -
16/11:30am 28.3 W 14 20 1010.7 - 0.0 - - - - - - -
16/11:00am 28.6 SW 12 17 1011.2 - 0.0 - - - - - - -
16/10:30am 27.0 SW 11 17 1011.7 - 0.0 - - - - - - -
16/10:00am 26.7 SW 11 18 1011.9 - 0.0 - - - - - - -
16/09:30am 25.5 SW 13 17 1012.2 - 0.0 - - - - - - -
16/09:00am 25.1 SW 13 18 1012.2 - 0.0 - - - - - - -
16/08:30am 24.1 SW 15 21 1012.3 - 0.0 - - - - - - -
16/08:00am 22.9 SW 13 20 1012.3 - 0.0 - - - - - - -
16/07:30am 22.2 SSW 12 15 1012.4 - 0.0 - - - - - - -
16/07:00am 20.4 SSW 9 13 1012.1 - 0.0 - - - - - - -
16/06:30am 18.9 SW 7 10 1011.7 - 0.0 - - - - - - -
16/06:00am 17.7 SW 5 7 1011.4 - 0.0 - - - - - - -
16/05:30am 17.7 SW 5 7 1011.1 - 0.0 - - - - - - -
16/05:00am 18.0 SW 6 7 1010.7 - 0.0 - - - - - - -
16/04:30am 18.4 SW 7 9 1010.3 - 0.0 - - - - - - -
16/04:00am 18.8 SW 6 7 1010.4 - 0.0 - - - - - - -
16/03:30am 19.2 SW 6 8 1010.3 - 0.0 - - - - - - -
16/03:00am 19.8 SW 8 11 1010.1 - 0.0 - - - - - - -
16/02:30am 20.1 SW 9 13 1010.0 - 0.0 - - - - - - -
16/02:00am 20.5 SW 9 13 1010.0 - 0.0 - - - - - - -
16/01:30am 21.1 WSW 10 13 1010.2 - 0.0 - - - - - - -
16/01:00am 21.5 WSW 9 13 1010.2 - 0.0 - - - - - - -
16/12:30am 21.8 WSW 9 11 1010.3 - 0.0 - - - - - - -
16/12:00am 22.0 WSW 10 14 1010.3 - 0.0 - - - - - - -
 
Date/Time
WST
Temp
°C
Wind Pressure Rain since
9am
mm
Weather Cloud Vis
km
Sea
Height
m
Swell
Dir  Spd
kts
Gust
kts
hPa Trend Height
m
Period
s
Dir
15/11:30pm 22.1 W 8 12 1010.6 - 0.0 - - - - - - -
15/11:00pm 22.2 W 7 10 1010.7 - 0.0 - - - - - - -
15/10:30pm 22.4 W 9 12 1010.9 - 0.0 - - - - - - -
15/10:00pm 22.4 W 8 10 1010.9 - 0.0 - - - - - - -
15/09:30pm 22.5 W 8 10 1010.8 - 0.0 - - - - - - -
15/09:00pm 22.5 W 6 8 1010.7 - 0.0 - - - - - - -
15/08:30pm 22.6 W 6 8 1010.4 - 0.0 - - - - - - -
15/08:00pm 22.9 W 7 10 1010.1 - 0.0 - - - - - - -
15/07:30pm 23.1 W 7 9 1009.8 - 0.0 - - - - - - -
15/07:00pm 23.3 W 8 12 1009.4 - 0.0 - - - - - - -
15/06:30pm 23.6 W 11 15 1008.8 - 0.0 - - - - - - -
15/06:00pm 24.2 W 13 16 1008.6 - 0.0 - - - - - - -
15/05:30pm 24.8 W 13 18 1008.3 - 0.0 - - - - - - -
15/05:00pm 25.8 W 14 17 1008.1 - 0.0 - - - - - - -
15/04:30pm 26.3 W 13 17 1008.1 - 0.0 - - - - - - -
15/04:00pm 26.9 W 15 19 1008.1 - 0.0 - - - - - - -
15/03:30pm 27.3 WNW 14 19 1008.2 - 0.0 - - - - - - -

Other Formats:

Comma delimited format used in spreadsheet applications
http://www.bom.gov.au/fwo/IDW60701/IDW60701.94306.axf

JavaScript Object Notation format (JSON) in row-major order
http://www.bom.gov.au/fwo/IDW60701/IDW60701.94306.json